Greece, New York
Current Conditions -  °F | °C
As of 2:54 PM on Sunday 21 Dec 2014 (Local Time) from KROC Reporting Station
Broken Clouds Broken Clouds  
Wind Chill: 29°   Ceiling: 3300
Heat Index: 35°   Visibility: 10mi
Dew Point: 22°   Wind: 7mph
Humidity: 59%   Direction: 260°W
Pressure: 30.28"   Gusts: NA
Location:  43.21°N, 77.69°W
Report Text: KROC 211954Z 26006KT 10SM BKN033 02/M06 A3028 RMK AO2 SLP264 T00171056
Loading
Personal Weather Stations






























Interactive Weather Map New forecast layout! Learn more

10-Day Weather Forecast

Advertisements
Track Severe Weather on mobile